createdAt,value
2019-02-21T00:02:02.206Z,101045.84
2019-02-21T00:04:30.469Z,101055.23
2019-02-21T00:06:58.488Z,101061.63
2019-02-21T00:09:26.551Z,101054.55
2019-02-21T00:11:54.735Z,101060.37
2019-02-21T00:14:22.786Z,101061.55
2019-02-21T00:16:50.803Z,101060.03
2019-02-21T00:19:19.088Z,101063.47
2019-02-21T00:21:47.145Z,101061.70
2019-02-21T00:24:15.470Z,101059.89
2019-02-21T00:26:44.388Z,101061.45
2019-02-21T00:29:12.542Z,101059.80
2019-02-21T00:31:41.022Z,101061.23
2019-02-21T00:34:09.061Z,101060.50
2019-02-21T00:36:37.112Z,101064.19
2019-02-21T00:39:06.040Z,101065.23
2019-02-21T00:41:34.398Z,101068.22
2019-02-21T00:44:02.464Z,101072.00
2019-02-21T00:46:31.842Z,101073.53
2019-02-21T00:48:59.890Z,101073.31
2019-02-21T00:51:27.940Z,101068.83
2019-02-21T00:53:55.981Z,101072.83
2019-02-21T00:56:24.035Z,101071.30
2019-02-21T00:58:52.130Z,101080.77
2019-02-21T01:01:21.026Z,101075.22
2019-02-21T01:03:49.241Z,101080.55
2019-02-21T01:06:17.687Z,101077.94
2019-02-21T01:08:47.596Z,101074.98
2019-02-21T01:11:17.429Z,101077.81
2019-02-21T01:13:45.624Z,101081.84
2019-02-21T01:16:13.726Z,101080.77
2019-02-21T01:18:42.372Z,101084.58
2019-02-21T01:21:10.388Z,101081.49
2019-02-21T01:23:38.460Z,101090.83
2019-02-21T01:26:07.841Z,101081.02
2019-02-21T01:28:35.988Z,101086.47
2019-02-21T01:31:04.144Z,101087.16
2019-02-21T01:33:32.478Z,101087.41
2019-02-21T01:36:00.676Z,101090.11
2019-02-21T01:38:28.883Z,101089.28
2019-02-21T01:40:56.966Z,101090.83
2019-02-21T01:43:25.002Z,101092.61
2019-02-21T01:45:53.105Z,101087.86
2019-02-21T01:48:21.154Z,101086.81
2019-02-21T01:50:52.314Z,101089.03
2019-02-21T01:53:20.373Z,101094.01
2019-02-21T01:55:48.550Z,101094.13
2019-02-21T01:58:16.612Z,101097.30
2019-02-21T02:00:44.716Z,101100.02
2019-02-21T02:03:13.206Z,101101.09
2019-02-21T02:05:41.615Z,101101.45
2019-02-21T02:08:10.067Z,101101.80
2019-02-21T02:10:38.487Z,101096.24
2019-02-21T02:13:07.762Z,101093.41
2019-02-21T02:15:35.828Z,101091.72
2019-02-21T02:18:06.535Z,101090.20
2019-02-21T02:20:34.593Z,101081.80
2019-02-21T02:23:03.086Z,101081.80
2019-02-21T02:25:31.146Z,101079.29
2019-02-21T02:27:59.181Z,101078.59
2019-02-21T02:30:27.347Z,101075.49
2019-02-21T02:32:56.036Z,101077.27
2019-02-21T02:35:24.099Z,101076.09
2019-02-21T02:37:52.481Z,101077.98
2019-02-21T02:40:20.547Z,101075.03
2019-02-21T02:42:48.596Z,101079.50
2019-02-21T02:45:17.834Z,101085.65
2019-02-21T02:47:46.392Z,101089.32
2019-02-21T02:50:14.788Z,101095.68
2019-02-21T02:52:42.856Z,101088.47
2019-02-21T02:55:11.029Z,101089.06
2019-02-21T02:57:39.146Z,101089.98
2019-02-21T03:00:10.164Z,101096.25
2019-02-21T03:02:38.340Z,101097.79
2019-02-21T03:05:06.592Z,101097.79
2019-02-21T03:07:34.663Z,101103.70
2019-02-21T03:10:04.759Z,101105.83
2019-02-21T03:12:32.955Z,101109.26
2019-02-21T03:15:02.136Z,101111.03
2019-02-21T03:17:30.242Z,101106.77
2019-02-21T03:19:58.480Z,101104.85
2019-02-21T03:22:28.062Z,101115.73
2019-02-21T03:24:56.341Z,101106.75
2019-02-21T03:27:25.617Z,101115.37
2019-02-21T03:29:53.767Z,101110.65
2019-02-21T03:32:21.848Z,101111.95
2019-02-21T03:34:51.211Z,101115.61
2019-02-21T03:37:19.421Z,101117.00
2019-02-21T03:39:47.862Z,101120.78
2019-02-21T03:42:17.074Z,101121.34
2019-02-21T03:44:45.293Z,101126.31
2019-02-21T03:47:13.620Z,101122.17
2019-02-21T03:49:42.775Z,101126.07
2019-02-21T03:52:10.864Z,101124.77
2019-02-21T03:54:39.034Z,101130.06
2019-02-21T03:57:07.157Z,101123.44
2019-02-21T03:59:35.839Z,101121.31
2019-02-21T04:02:05.932Z,101127.81
2019-02-21T04:04:35.199Z,101124.03
2019-02-21T04:07:03.324Z,101131.44
2019-02-21T04:09:31.472Z,101127.89
2019-02-21T04:11:59.626Z,101129.86
2019-02-21T04:14:28.021Z,101124.42
2019-02-21T04:16:57.053Z,101125.73
2019-02-21T04:19:25.501Z,101131.13
2019-02-21T04:21:53.590Z,101136.80
2019-02-21T04:24:21.653Z,101130.65
2019-02-21T04:26:49.750Z,101126.75
2019-02-21T04:29:17.932Z,101125.45
2019-02-21T04:31:46.131Z,101121.39
2019-02-21T04:34:14.194Z,101130.14
2019-02-21T04:36:42.586Z,101124.58
2019-02-21T04:39:10.653Z,101124.42
2019-02-21T04:41:38.764Z,101131.39
2019-02-21T04:44:06.896Z,101127.38
2019-02-21T04:46:34.978Z,101122.18
2019-02-21T04:49:03.056Z,101118.28
2019-02-21T04:51:31.141Z,101120.53
2019-02-21T04:53:59.601Z,101126.67
2019-02-21T04:56:27.847Z,101131.23
2019-02-21T04:58:56.226Z,101130.64
2019-02-21T05:01:24.407Z,101138.31
2019-02-21T05:03:53.580Z,101134.42
2019-02-21T05:06:21.956Z,101142.22
2019-02-21T05:08:50.157Z,101137.48
2019-02-21T05:11:18.455Z,101144.34
2019-02-21T05:13:46.527Z,101140.80
2019-02-21T05:16:14.609Z,101144.70
2019-02-21T05:18:42.921Z,101147.88
2019-02-21T05:21:10.991Z,101146.58
2019-02-21T05:23:39.190Z,101147.53
2019-02-21T05:26:11.279Z,101138.63
2019-02-21T05:28:41.273Z,101142.17
2019-02-21T05:31:28.585Z,101136.61
2019-02-21T05:34:01.633Z,101142.17
2019-02-21T05:36:55.648Z,101141.81
2019-02-21T05:39:36.647Z,101138.14
2019-02-21T05:42:18.568Z,101137.98
2019-02-21T05:45:10.986Z,101145.30
2019-02-21T05:47:49.450Z,101137.98
2019-02-21T05:50:32.280Z,101143.29
2019-02-21T05:53:23.272Z,101145.17
2019-02-21T05:55:59.250Z,101145.13
2019-02-21T05:58:40.704Z,101147.91
2019-02-21T06:01:16.956Z,101140.35
2019-02-21T06:04:12.427Z,101140.30
2019-02-21T06:07:12.522Z,101136.05
2019-02-21T06:09:46.402Z,101140.13
2019-02-21T06:12:36.811Z,101135.63
2019-02-21T06:15:40.965Z,101134.45
2019-02-21T06:18:23.454Z,101139.64
2019-02-21T06:21:06.550Z,101139.28
2019-02-21T06:23:42.015Z,101144.91
2019-02-21T06:26:26.040Z,101154.75
2019-02-21T06:29:22.464Z,101149.20
2019-02-21T06:31:51.363Z,101145.66
2019-02-21T06:34:19.916Z,101155.00
2019-02-21T06:36:48.313Z,101162.42
2019-02-21T06:39:16.642Z,101158.42
2019-02-21T06:41:45.198Z,101155.63
2019-02-21T06:44:13.996Z,101153.39
2019-02-21T06:46:42.171Z,101170.52
2019-02-21T06:49:10.380Z,101171.23
2019-02-21T06:51:38.558Z,101176.71
2019-02-21T06:54:09.246Z,101189.94
2019-02-21T06:56:37.429Z,101190.77
2019-02-21T06:59:05.521Z,101199.31
2019-02-21T07:01:33.951Z,101200.22
2019-02-21T07:04:02.128Z,101205.53
2019-02-21T07:06:32.210Z,101205.89
2019-02-21T07:09:01.006Z,101212.77
2019-02-21T07:11:29.754Z,101216.80
2019-02-21T07:14:03.477Z,101215.67
2019-02-21T07:17:58.032Z,101214.98
2019-02-21T07:20:51.935Z,101219.41
2019-02-21T07:23:22.068Z,101213.31
2019-02-21T07:25:56.269Z,101217.63
2019-02-21T07:28:24.501Z,101222.28
2019-02-21T07:30:53.954Z,101226.84
2019-02-21T07:33:28.396Z,101220.90
2019-02-21T07:35:52.264Z,101219.69
2019-02-21T07:38:20.781Z,101220.20
2019-02-21T07:40:48.831Z,101221.83
2019-02-21T07:43:20.591Z,101220.95
2019-02-21T07:45:48.931Z,101223.97
2019-02-21T07:48:17.187Z,101217.16
2019-02-21T07:50:45.487Z,101216.50
2019-02-21T07:53:13.769Z,101216.56
2019-02-21T07:55:41.872Z,101218.62
2019-02-21T07:58:10.068Z,101222.19
2019-02-21T08:00:39.110Z,101212.75
2019-02-21T08:03:09.201Z,101213.34
2019-02-21T08:05:37.917Z,101213.34
2019-02-21T08:08:06.015Z,101217.56
2019-02-21T08:10:34.637Z,101220.63
2019-02-21T08:13:02.804Z,101220.09
2019-02-21T08:15:30.880Z,101229.31
2019-02-21T08:17:58.981Z,101224.70
2019-02-21T08:20:34.024Z,101219.13
2019-02-21T08:22:57.140Z,101227.31
2019-02-21T08:25:25.232Z,101233.61
2019-02-21T08:27:53.391Z,101235.56
2019-02-21T08:30:21.474Z,101240.14
2019-02-21T08:33:09.142Z,101241.37
2019-02-21T08:35:38.325Z,101240.05
2019-02-21T08:38:06.511Z,101232.14
2019-02-21T08:40:35.828Z,101228.14
2019-02-21T08:43:04.253Z,101230.09
2019-02-21T08:45:32.579Z,101231.62
2019-02-21T08:48:00.607Z,101235.81
2019-02-21T08:50:29.656Z,101231.23
2019-02-21T08:53:00.831Z,101228.55
2019-02-21T08:55:29.227Z,101233.23
2019-02-21T08:57:57.632Z,101234.68
2019-02-21T09:00:26.084Z,101234.05
2019-02-21T09:02:54.502Z,101234.36
2019-02-21T09:05:22.688Z,101234.02
2019-02-21T09:07:50.876Z,101225.31
2019-02-21T09:10:20.773Z,101233.13
2019-02-21T09:12:49.947Z,101228.74
2019-02-21T09:15:18.126Z,101231.42
2019-02-21T09:17:46.206Z,101235.51
2019-02-21T09:20:14.371Z,101239.41
2019-02-21T09:22:42.544Z,101231.54
2019-02-21T09:25:11.449Z,101234.35
2019-02-21T09:27:40.626Z,101234.97
2019-02-21T09:30:13.781Z,101229.14
2019-02-21T09:32:42.381Z,101229.86
2019-02-21T09:35:10.562Z,101228.77
2019-02-21T09:37:40.569Z,101228.33
2019-02-21T09:40:11.186Z,101223.06
2019-02-21T09:42:39.409Z,101221.23
2019-02-21T09:45:11.943Z,101225.71
2019-02-21T09:47:40.007Z,101219.20
2019-02-21T09:50:09.601Z,101222.88
2019-02-21T09:52:37.947Z,101215.47
2019-02-21T09:55:09.147Z,101217.45
2019-02-21T09:57:37.425Z,101206.92
2019-02-21T10:00:11.362Z,101208.80
2019-02-21T10:02:41.968Z,101200.18
2019-02-21T10:05:09.652Z,101205.94
2019-02-21T10:07:39.360Z,101205.85
2019-02-21T10:10:11.599Z,101208.55
2019-02-21T10:12:41.355Z,101207.67
2019-02-21T10:15:10.423Z,101206.97
2019-02-21T10:17:38.643Z,101207.08
2019-02-21T10:20:11.111Z,101202.53
2019-02-21T10:22:39.309Z,101205.84
2019-02-21T10:25:16.275Z,101205.34
2019-02-21T10:27:44.352Z,101204.03
2019-02-21T10:30:14.210Z,101209.17
2019-02-21T10:32:42.277Z,101202.84
2019-02-21T10:35:10.330Z,101195.95
2019-02-21T10:37:38.412Z,101193.19
2019-02-21T10:40:09.441Z,101187.56
2019-02-21T10:42:37.694Z,101183.50
2019-02-21T10:45:09.601Z,101181.11
2019-02-21T10:47:37.970Z,101171.98
2019-02-21T10:50:09.766Z,101179.87
2019-02-21T10:52:37.958Z,101183.02
2019-02-21T10:55:07.987Z,101183.61
2019-02-21T10:57:38.280Z,101183.58
2019-02-21T11:00:12.282Z,101181.61
2019-02-21T11:02:41.336Z,101178.80
2019-02-21T11:05:10.148Z,101173.96
2019-02-21T11:07:38.694Z,101171.14
2019-02-21T11:10:07.534Z,101171.78
2019-02-21T11:12:35.803Z,101176.75
2019-02-21T11:15:07.270Z,101172.95
2019-02-21T11:17:35.338Z,101170.70
2019-02-21T11:20:06.879Z,101162.99
2019-02-21T11:22:34.999Z,101162.38
2019-02-21T11:25:03.754Z,101162.90
2019-02-21T11:27:31.939Z,101153.73
2019-02-21T11:30:00.008Z,101154.27
2019-02-21T11:32:28.273Z,101157.82
2019-02-21T11:35:05.769Z,101153.75
2019-02-21T11:37:26.434Z,101155.05
2019-02-21T11:39:54.506Z,101152.52
2019-02-21T11:42:22.696Z,101145.33
2019-02-21T11:44:50.725Z,101159.70
2019-02-21T11:47:18.813Z,101148.38
2019-02-21T11:49:46.882Z,101146.78
2019-02-21T11:52:14.954Z,101148.39
2019-02-21T11:54:43.384Z,101145.41
2019-02-21T11:57:12.730Z,101146.27
2019-02-21T11:59:42.722Z,101146.78
2019-02-21T12:02:11.767Z,101138.12
2019-02-21T12:04:40.037Z,101147.33
2019-02-21T12:07:08.448Z,101139.75
2019-02-21T12:09:36.804Z,101144.87
2019-02-21T12:12:06.976Z,101144.11
2019-02-21T12:14:35.057Z,101140.53
2019-02-21T12:17:03.323Z,101138.86
2019-02-21T12:19:31.360Z,101138.17
2019-02-21T12:21:59.605Z,101144.01
2019-02-21T12:24:28.020Z,101140.36
2019-02-21T12:26:56.087Z,101132.66
2019-02-21T12:29:24.483Z,101128.78
2019-02-21T12:31:52.547Z,101124.10
2019-02-21T12:34:20.915Z,101119.91
2019-02-21T12:36:48.964Z,101120.12
2019-02-21T12:39:17.018Z,101115.63
2019-02-21T12:41:45.101Z,101114.96
2019-02-21T12:44:13.136Z,101115.07
2019-02-21T12:46:41.204Z,101113.47
2019-02-21T12:49:10.738Z,101109.44
2019-02-21T12:51:39.375Z,101108.14
2019-02-21T12:54:07.740Z,101105.70
2019-02-21T12:56:35.829Z,101105.39
2019-02-21T12:59:03.923Z,101101.57
2019-02-21T13:01:31.984Z,101098.05
2019-02-21T13:04:00.557Z,101094.82
2019-02-21T13:06:28.616Z,101099.70
2019-02-21T13:08:57.043Z,101097.28
2019-02-21T13:11:25.134Z,101099.23
2019-02-21T13:13:53.214Z,101099.23
2019-02-21T13:16:21.251Z,101087.84
2019-02-21T13:18:49.336Z,101087.05
2019-02-21T13:21:17.737Z,101085.95
2019-02-21T13:23:45.922Z,101081.63
2019-02-21T13:26:14.403Z,101080.79
2019-02-21T13:28:42.825Z,101083.73
2019-02-21T13:31:12.090Z,101074.22
2019-02-21T13:33:40.439Z,101080.42
2019-02-21T13:36:09.600Z,101083.05
2019-02-21T13:38:38.213Z,101076.16
2019-02-21T13:41:06.252Z,101072.29
2019-02-21T13:43:34.601Z,101071.43
2019-02-21T13:46:02.752Z,101073.30
2019-02-21T13:48:31.218Z,101076.02
2019-02-21T13:51:00.006Z,101078.43
2019-02-21T13:53:28.377Z,101079.20
2019-02-21T13:55:56.609Z,101075.41
2019-02-21T13:58:24.682Z,101072.20
2019-02-21T14:00:53.827Z,101068.28
2019-02-21T14:03:21.918Z,101078.42
2019-02-21T14:05:49.991Z,101078.24
2019-02-21T14:08:18.039Z,101078.55
2019-02-21T14:10:46.099Z,101077.52
2019-02-21T14:13:14.289Z,101074.08
2019-02-21T14:15:43.452Z,101071.66
2019-02-21T14:18:14.813Z,101072.13
2019-02-21T14:20:45.621Z,101070.38
2019-02-21T14:23:13.423Z,101065.12
2019-02-21T14:25:41.484Z,101065.17
2019-02-21T14:28:09.668Z,101064.49
2019-02-21T14:30:38.078Z,101055.43
2019-02-21T14:33:06.175Z,101059.67
2019-02-21T14:35:34.341Z,101059.83
2019-02-21T14:38:02.538Z,101071.02
2019-02-21T14:40:30.566Z,101073.10
2019-02-21T14:42:58.762Z,101069.75
2019-02-21T14:45:28.283Z,101067.73
2019-02-21T14:47:56.519Z,101064.39
2019-02-21T14:50:24.570Z,101063.22
2019-02-21T14:52:53.808Z,101068.74
2019-02-21T14:55:21.869Z,101073.50
2019-02-21T14:57:50.431Z,101078.02
2019-02-21T15:00:20.473Z,101076.53
2019-02-21T15:02:49.672Z,101085.44
2019-02-21T15:05:18.276Z,101079.80
2019-02-21T15:07:46.351Z,101089.18
2019-02-21T15:10:15.089Z,101090.17
2019-02-21T15:12:44.265Z,101093.33
2019-02-21T15:15:14.413Z,101091.63
2019-02-21T15:17:42.713Z,101094.72
2019-02-21T15:20:13.148Z,101101.84
2019-02-21T15:22:41.355Z,101101.75
2019-02-21T15:25:09.528Z,101109.41
2019-02-21T15:27:39.767Z,101096.98
2019-02-21T15:30:11.714Z,101097.97
2019-02-21T15:32:40.496Z,101100.02
2019-02-21T15:35:08.688Z,101098.09
2019-02-21T15:37:36.744Z,101103.42
2019-02-21T15:40:08.636Z,101102.34
2019-02-21T15:42:36.209Z,101106.32
2019-02-21T15:45:05.964Z,101105.52
2019-02-21T15:47:34.138Z,101099.34
2019-02-21T15:50:02.845Z,101097.72
2019-02-21T15:52:32.632Z,101098.57
2019-02-21T15:55:11.841Z,101099.06
2019-02-21T15:57:30.923Z,101090.78
2019-02-21T15:59:59.011Z,101096.67
2019-02-21T16:02:27.069Z,101092.88
2019-02-21T16:04:56.886Z,101090.74
2019-02-21T16:07:24.953Z,101099.92
2019-02-21T16:09:53.330Z,101102.86
2019-02-21T16:12:21.465Z,101115.42
2019-02-21T16:14:49.943Z,101122.08
2019-02-21T16:17:17.992Z,101129.31
2019-02-21T16:19:46.077Z,101129.94
2019-02-21T16:22:15.462Z,101139.61
2019-02-21T16:24:43.862Z,101144.52
2019-02-21T16:27:12.342Z,101149.63
2019-02-21T16:29:40.373Z,101147.80
2019-02-21T16:32:08.504Z,101158.83
2019-02-21T16:34:36.883Z,101156.48
2019-02-21T16:37:05.037Z,101163.06
2019-02-21T16:39:33.349Z,101154.13
2019-02-21T16:42:01.752Z,101155.94
2019-02-21T16:44:29.845Z,101158.87
2019-02-21T16:46:57.892Z,101155.81
2019-02-21T16:49:25.971Z,101160.17
2019-02-21T16:51:54.644Z,101158.22
2019-02-21T16:54:22.729Z,101169.55
2019-02-21T16:56:50.836Z,101163.26
2019-02-21T16:59:21.088Z,101170.91
2019-02-21T17:01:49.157Z,101167.78
2019-02-21T17:04:17.362Z,101177.62
2019-02-21T17:06:45.636Z,101180.52
2019-02-21T17:09:14.888Z,101183.23
2019-02-21T17:11:44.182Z,101179.98
2019-02-21T17:14:12.346Z,101184.70
2019-02-21T17:16:41.878Z,101190.92
2019-02-21T17:19:10.052Z,101188.95
2019-02-21T17:21:38.454Z,101199.95
2019-02-21T17:24:06.539Z,101207.78
2019-02-21T17:26:34.737Z,101202.85
2019-02-21T17:29:02.912Z,101204.23
2019-02-21T17:31:31.015Z,101210.40
2019-02-21T17:33:59.184Z,101209.42
2019-02-21T17:36:27.265Z,101217.33
2019-02-21T17:38:55.338Z,101209.59
2019-02-21T17:41:24.612Z,101204.81
2019-02-21T17:43:52.776Z,101215.53
2019-02-21T17:46:22.032Z,101215.02
2019-02-21T17:48:51.916Z,101218.45
2019-02-21T17:51:20.485Z,101223.50
2019-02-21T17:53:48.734Z,101222.78
2019-02-21T17:56:17.185Z,101233.81
2019-02-21T17:58:45.842Z,101238.88
2019-02-21T18:01:13.969Z,101242.12
2019-02-21T18:03:42.143Z,101251.63
2019-02-21T18:06:17.432Z,101249.20
2019-02-21T18:08:45.465Z,101247.75
2019-02-21T18:11:13.654Z,101245.62
2019-02-21T18:13:43.537Z,101253.42
2019-02-21T18:16:12.086Z,101260.55
2019-02-21T18:18:40.161Z,101258.26
2019-02-21T18:21:08.571Z,101265.52
2019-02-21T18:23:36.963Z,101272.30
2019-02-21T18:26:16.825Z,101267.20
2019-02-21T18:28:44.925Z,101270.49
2019-02-21T18:31:23.840Z,101274.44
2019-02-21T18:33:52.101Z,101278.20
2019-02-21T18:36:20.366Z,101279.66
2019-02-21T18:38:48.871Z,101281.14
2019-02-21T18:41:17.436Z,101280.94
2019-02-21T18:43:45.844Z,101275.66
2019-02-21T18:46:16.063Z,101282.02
2019-02-21T18:48:46.143Z,101278.80
2019-02-21T18:51:14.241Z,101278.22
2019-02-21T18:53:42.336Z,101281.56
2019-02-21T18:56:10.581Z,101290.48
2019-02-21T18:58:40.761Z,101283.36
2019-02-21T19:01:08.966Z,101286.40
2019-02-21T19:03:37.139Z,101287.37
2019-02-21T19:06:05.337Z,101290.11
2019-02-21T19:08:34.597Z,101289.09
2019-02-21T19:11:03.896Z,101288.91
2019-02-21T19:13:31.972Z,101290.52
2019-02-21T19:16:02.066Z,101294.94
2019-02-21T19:18:31.233Z,101287.80
2019-02-21T19:20:59.521Z,101297.40
2019-02-21T19:23:27.767Z,101298.16
2019-02-21T19:25:55.891Z,101303.33
2019-02-21T19:28:23.969Z,101305.08
2019-02-21T19:30:58.270Z,101293.23
2019-02-21T19:33:26.546Z,101299.41
2019-02-21T19:35:55.158Z,101299.33
2019-02-21T19:38:23.616Z,101303.19
2019-02-21T19:40:51.750Z,101308.51
2019-02-21T19:43:20.135Z,101311.90
2019-02-21T19:45:48.331Z,101317.46
2019-02-21T19:48:17.259Z,101317.39
2019-02-21T19:50:45.382Z,101311.29
2019-02-21T19:53:14.465Z,101313.36
2019-02-21T19:55:43.791Z,101314.77
2019-02-21T19:58:11.950Z,101321.14
2019-02-21T20:00:40.591Z,101313.20
2019-02-21T20:03:10.860Z,101311.03
2019-02-21T20:05:38.949Z,101316.70
2019-02-21T20:08:08.973Z,101311.60
2019-02-21T20:10:37.390Z,101314.23
2019-02-21T20:13:10.597Z,101313.41
2019-02-21T20:15:39.129Z,101319.97
2019-02-21T20:18:07.203Z,101331.78
2019-02-21T20:20:35.287Z,101332.11
2019-02-21T20:23:03.368Z,101335.41
2019-02-21T20:25:31.871Z,101341.83
2019-02-21T20:27:59.989Z,101336.09
2019-02-21T20:30:28.062Z,101336.42
2019-02-21T20:32:56.281Z,101343.36
2019-02-21T20:35:24.443Z,101345.16
2019-02-21T20:37:52.544Z,101340.85
2019-02-21T20:40:20.805Z,101344.61
2019-02-21T20:42:49.061Z,101345.24
2019-02-21T20:45:17.235Z,101352.89
2019-02-21T20:47:45.476Z,101354.99
2019-02-21T20:50:14.097Z,101350.98
2019-02-21T20:52:42.368Z,101356.20
2019-02-21T20:55:10.997Z,101364.67
2019-02-21T20:57:39.514Z,101367.30
2019-02-21T21:00:11.298Z,101366.28
2019-02-21T21:02:39.803Z,101375.73
2019-02-21T21:05:08.192Z,101376.36
2019-02-21T21:07:36.714Z,101378.31
2019-02-21T21:10:08.589Z,101382.25
2019-02-21T21:12:38.577Z,101379.63
2019-02-21T21:15:09.431Z,101382.10
2019-02-21T21:17:37.641Z,101382.59
2019-02-21T21:20:15.955Z,101377.83
2019-02-21T21:22:38.473Z,101377.83
2019-02-21T21:25:09.566Z,101386.45
2019-02-21T21:27:39.186Z,101389.55
2019-02-21T21:30:10.199Z,101394.95
2019-02-21T21:32:40.013Z,101402.14
2019-02-21T21:35:08.220Z,101400.12
2019-02-21T21:37:36.700Z,101400.75
2019-02-21T21:40:07.137Z,101412.63
2019-02-21T21:42:35.429Z,101404.22
2019-02-21T21:45:05.715Z,101411.52
2019-02-21T21:47:33.808Z,101416.57
2019-02-21T21:50:01.851Z,101417.80
2019-02-21T21:52:31.456Z,101420.03
2019-02-21T21:54:59.557Z,101413.39
2019-02-21T21:57:27.642Z,101411.39
2019-02-21T21:59:55.759Z,101418.20
2019-02-21T22:02:23.842Z,101427.53
2019-02-21T22:04:51.896Z,101419.80
2019-02-21T22:07:20.399Z,101424.70
2019-02-21T22:09:48.762Z,101427.33
2019-02-21T22:12:18.012Z,101434.22
2019-02-21T22:14:47.337Z,101436.02
2019-02-21T22:17:15.411Z,101437.33
2019-02-21T22:19:43.487Z,101433.05
2019-02-21T22:22:11.593Z,101432.69
2019-02-21T22:24:39.683Z,101436.91
2019-02-21T22:27:08.129Z,101442.54
2019-02-21T22:29:36.293Z,101440.20
2019-02-21T22:32:04.373Z,101439.03
2019-02-21T22:34:32.442Z,101442.11
2019-02-21T22:37:00.624Z,101445.10
2019-02-21T22:39:28.694Z,101439.03
2019-02-21T22:41:56.784Z,101443.90
2019-02-21T22:44:25.230Z,101443.22
2019-02-21T22:46:53.398Z,101445.98
2019-02-21T22:49:22.458Z,101447.15
2019-02-21T22:51:50.581Z,101443.84
2019-02-21T22:54:20.107Z,101443.13
2019-02-21T22:56:48.173Z,101447.79
2019-02-21T22:59:16.361Z,101454.63
2019-02-21T23:01:46.489Z,101450.45
2019-02-21T23:05:16.845Z,101458.80
2019-02-21T23:08:48.871Z,101455.84
2019-02-21T23:11:16.964Z,101463.84
2019-02-21T23:13:45.153Z,101463.95
2019-02-21T23:16:13.454Z,101468.12
2019-02-21T23:18:41.565Z,101463.22
2019-02-21T23:21:09.774Z,101472.88
2019-02-21T23:23:38.935Z,101479.91
2019-02-21T23:26:07.528Z,101477.54
2019-02-21T23:28:35.677Z,101473.75
2019-02-21T23:31:03.758Z,101479.12
2019-02-21T23:33:34.253Z,101478.44
2019-02-21T23:36:02.801Z,101485.86
2019-02-21T23:38:31.864Z,101490.13
2019-02-21T23:40:59.963Z,101492.61
2019-02-21T23:43:28.345Z,101492.02
2019-02-21T23:45:56.719Z,101500.64
2019-02-21T23:48:24.800Z,101493.02
2019-02-21T23:50:53.847Z,101500.11
2019-02-21T23:53:21.932Z,101496.08
2019-02-21T23:55:49.989Z,101498.80
2019-02-21T23:58:19.059Z,101500.48
